Thunder radar more information blitzortung!


Radar de pluja more information rain snow radar


Visita la nostra xarxa de llocs de meteo:

Template documentation
and downloads

And another site



No particular awareness of the weather is required.    There are no Weather-warnings

Pagina Historial Weather Underground text

Diari Resum Juny 18, 2017 Unitats:  Imperial    Mètric   Tant
« Previous Dia
SegĂźent Dia »
Diari Setmana Mensual Anual Personalitzada
  Maxima: Minima: Media:
Temperatura: 94.1 °F 68.2 °F 79.5 °F
Punt de rosada: 65.5 °F 55.6 °F 62.6 °F
Humitat: 85 % 29 % 59 %
Wind Speed: 11.5 mph 0 mph 3.2 mph
RĂ fegues de vent: 13 mph - -
Vent:- - ESE
Pression baro: 30 in 29.9 in -
Precipitacions: 0 in    
Historical Graphs
 
 
Dades de taula per Juny 18, 2017
Temps Temperatura Punt de rosada Pression baro Vent Wind Speed RĂ fegues de vent Humitat Rainfall Rate (Hourly)
00:00 70.7 °F 65.3 °F 29.9 in Calm   2 mph 83 % 0 in
00:04 75.6 °F 64.2 °F 29.9 in SW 2.3 mph 2.3 mph 68 % 0 in
00:09 75.6 °F 64.8 °F 29.9 in SW 2.3 mph 2.3 mph 69 % 0 in
00:10 70.2 °F 64.8 °F 29.9 in East 1 mph 1 mph 83 % 0 in
00:20 70 °F 64.6 °F 29.9 in South 1 mph   83 % 0 in
00:30 69.8 °F 64.8 °F 29.9 in Calm     84 % 0 in
00:40 69.4 °F 64.4 °F 29.9 in Calm     84 % 0 in
00:50 69.3 °F 64.6 °F 29.9 in Calm     85 % 0 in
01:00 69.1 °F 64.4 °F 29.9 in Calm     85 % 0 in
01:10 68.7 °F 63.7 °F 29.9 in Calm   1 mph 84 % 0 in
01:20 68.5 °F 63.5 °F 29.9 in Calm   1 mph 84 % 0 in
01:30 68.2 °F 63.1 °F 29.9 in Calm     84 % 0 in
01:40 68.2 °F 63.1 °F 29.9 in Calm     84 % 0 in
01:50 68.2 °F 63.5 °F 29.9 in Calm   1 mph 85 % 0 in
02:00 68.9 °F 64.2 °F 29.9 in Calm   1 mph 85 % 0 in
02:10 69.3 °F 63.9 °F 29.9 in NE 1 mph 1 mph 83 % 0 in
02:20 69.8 °F 64 °F 29.9 in NE 1 mph 1 mph 82 % 0 in
02:30 70.5 °F 64.4 °F 29.9 in Calm     81 % 0 in
02:40 71.2 °F 64.4 °F 29.9 in Calm   1 mph 79 % 0 in
02:50 71.8 °F 63.3 °F 29.9 in ENE 3 mph 3 mph 75 % 0 in
03:00 71.8 °F 63.3 °F 29.9 in NE 3 mph 4 mph 75 % 0 in
03:10 72.5 °F 63.7 °F 29.9 in NE 2 mph 3 mph 74 % 0 in
03:20 72.7 °F 63.5 °F 29.9 in NE 2 mph 4 mph 73 % 0 in
03:30 73.9 °F 64.8 °F 29.9 in Calm   3 mph 73 % 0 in
03:40 74.1 °F 64.6 °F 29.9 in NE 2 mph 3 mph 72 % 0 in
03:50 75.4 °F 64.9 °F 29.9 in NE 2 mph 4 mph 70 % 0 in
04:00 75.6 °F 64.8 °F 29.9 in NE 2 mph 3 mph 69 % 0 in
04:10 75.9 °F 64.2 °F 29.9 in NE 2 mph 4 mph 67 % 0 in
04:20 77 °F 63.9 °F 29.9 in NE 3 mph 3 mph 64 % 0 in
04:30 77.9 °F 64.2 °F 29.9 in NNE 1 mph 3 mph 63 % 0 in
04:40 78.1 °F 64 °F 29.9 in NNE 1 mph 4 mph 62 % 0 in
04:50 79.3 °F 65.1 °F 29.9 in NE 2 mph 4 mph 62 % 0 in
05:00 79.7 °F 65.5 °F 29.9 in ENE 3 mph 4 mph 62 % 0 in
05:10 79.9 °F 65.1 °F 29.9 in NE 3 mph 4 mph 61 % 0 in
05:20 80.8 °F 65.1 °F 29.9 in NE 3 mph 5 mph 59 % 0 in
05:30 81 °F 64.2 °F 29.9 in ENE 5 mph 6 mph 57 % 0 in
05:40 82.8 °F 64.9 °F 29.9 in ENE 2 mph 5 mph 55 % 0 in
05:50 82.8 °F 63.9 °F 29.9 in East 5 mph 5 mph 53 % 0 in
06:00 83.3 °F 63.9 °F 29.9 in ESE 3 mph 6 mph 52 % 0 in
06:10 83.3 °F 62.8 °F 29.9 in ESE 5 mph 8 mph 50 % 0 in
06:20 85.3 °F 64.6 °F 29.9 in SE 2 mph 6 mph 50 % 0 in
06:30 85.1 °F 63.9 °F 29.9 in East 3 mph 6 mph 49 % 0 in
06:40 84.9 °F 62.4 °F 29.9 in East 7 mph 7 mph 47 % 0 in
06:50 85.1 °F 62.6 °F 29.9 in ESE 3 mph 7 mph 47 % 0 in
07:00 85.8 °F 62.6 °F 29.9 in ESE 5 mph 5 mph 46 % 0 in
07:10 86.2 °F 63 °F 29.9 in ESE 3 mph 8 mph 46 % 0 in
07:20 86 °F 62.2 °F 29.9 in East 6 mph 7 mph 45 % 0 in
07:30 86 °F 61 °F 29.9 in East 6 mph 8 mph 43 % 0 in
07:40 86.5 °F 62.1 °F 29.9 in ESE 6 mph 9 mph 44 % 0 in
07:50 86.4 °F 61.9 °F 29.9 in ESE 6 mph 8 mph 44 % 0 in
08:00 86 °F 62.2 °F 30 in ESE 7 mph 11 mph 45 % 0 in
08:10 85.8 °F 62.6 °F 29.9 in East 7 mph 10 mph 46 % 0 in
08:20 86.5 °F 62.8 °F 29.9 in East 6 mph 6 mph 45 % 0 in
08:30 86.7 °F 62.8 °F 29.9 in ESE 5 mph 6 mph 45 % 0 in
08:40 87.4 °F 63.5 °F 29.9 in ESE 6 mph 13 mph 45 % 0 in
08:50 87.3 °F 62.8 °F 29.9 in ESE 8 mph 8 mph 44 % 0 in
09:00 87.8 °F 62.4 °F 29.9 in ESE 6 mph 10 mph 43 % 0 in
09:10 89.2 °F 62.4 °F 29.9 in ESE 5 mph 6 mph 41 % 0 in
09:20 90.9 °F 63.9 °F 29.9 in SE 3 mph 5 mph 41 % 0 in
09:30 90.9 °F 63.1 °F 29.9 in SE 2 mph 4 mph 40 % 0 in
09:40 91.9 °F 61.2 °F 29.9 in SSW 5 mph 6 mph 36 % 0 in
09:50 93 °F 61.3 °F 29.9 in SW 6 mph 6 mph 35 % 0 in
10:00 93 °F 61.3 °F 29.9 in SW 5 mph 5 mph 35 % 0 in
10:10 93.4 °F 61.5 °F 29.9 in SSW 3 mph 6 mph 35 % 0 in
10:20 93.4 °F 60.8 °F 29.9 in SSW 5 mph 7 mph 34 % 0 in
10:30 92.8 °F 60.3 °F 29.9 in SW 2 mph 8 mph 34 % 0 in
10:40 92.7 °F 60.3 °F 29.9 in SW 6 mph 6 mph 34 % 0 in
10:50 93 °F 60.4 °F 29.9 in SW 7 mph 7 mph 34 % 0 in
11:00 93.2 °F 59.7 °F 29.9 in SW 3 mph 8 mph 33 % 0 in
11:10 92.8 °F 59.5 °F 29.9 in SW 5 mph 10 mph 33 % 0 in
11:20 93.9 °F 59.5 °F 29.9 in SW 3 mph 6 mph 32 % 0 in
11:30 93.4 °F 58.3 °F 29.9 in WSW 5 mph 6 mph 31 % 0 in
11:40 93 °F 58.8 °F 29.9 in SW 3 mph 9 mph 32 % 0 in
11:50 93 °F 58.8 °F 29.9 in SW 3 mph 9 mph 32 % 0 in
12:00 94.1 °F 57.9 °F 29.9 in SW 3 mph 5 mph 30 % 0 in
12:10 92.5 °F 55.6 °F 29.9 in SW 5 mph 9 mph 29 % 0 in
12:20 93.2 °F 57.2 °F 29.9 in SW 3 mph 7 mph 30 % 0 in
12:30 93 °F 57 °F 29.9 in SW 6 mph 6 mph 30 % 0 in
12:40 93 °F 57.9 °F 29.9 in SW 3 mph 9 mph 31 % 0 in
12:50 93 °F 57 °F 29.9 in SSW 2 mph 6 mph 30 % 0 in
13:00 92.7 °F 56.7 °F 29.9 in SW 3 mph 5 mph 30 % 0 in
13:10 92.5 °F 56.5 °F 29.9 in WSW 3 mph 6 mph 30 % 0 in
13:20 92.3 °F 56.5 °F 29.9 in SW 5 mph 6 mph 30 % 0 in
13:30 91.9 °F 56.1 °F 29.9 in SW 7 mph 7 mph 30 % 0 in
13:40 91.4 °F 55.6 °F 29.9 in SW 6 mph 6 mph 30 % 0 in
13:50 91 °F 56.1 °F 29.9 in WSW 5 mph 9 mph 31 % 0 in
14:00 90.7 °F 55.9 °F 29.9 in SW 6 mph 6 mph 31 % 0 in
14:10 90.5 °F 56.7 °F 29.9 in SW 3 mph 5 mph 32 % 0 in
14:20 88.7 °F 57.6 °F 29.9 in WSW 2 mph 3 mph 35 % 0 in
19:10 73.9 °F 63.1 °F 30 in NNE 1 mph 1 mph 69 % 0 in
19:20 73.8 °F 63.3 °F 30 in NNE 1 mph 1 mph 70 % 0 in
19:29 85.8 °F 60.1 °F 29.9 in ENE 8.1 mph 8.1 mph 42 % 0 in
19:30 73.6 °F 63.1 °F 30 in Calm   1 mph 70 % 0 in
19:34 84.7 °F 60.4 °F 29.9 in ESE 5.8 mph 5.8 mph 44 % 0 in
19:39 84.2 °F 61.2 °F 29.9 in SE 9.2 mph 9.2 mph 46 % 0 in
19:40 73.4 °F 63 °F 30 in Calm     70 % 0 in
19:44 83.7 °F 62.4 °F 29.9 in ESE 11.5 mph 11.5 mph 49 % 0 in
19:49 83.1 °F 63.1 °F 29.9 in East 10.4 mph 10.4 mph 51 % 0 in
19:50 73.2 °F 63.1 °F 30 in Calm     71 % 0 in
19:54 82.9 °F 63 °F 29.9 in East 7.6 mph 7.6 mph 51 % 0 in
19:59 82.8 °F 63.9 °F 29.9 in NNE 4.6 mph 4.6 mph 53 % 0 in
20:00 73.2 °F 63.1 °F 30 in Calm   2 mph 71 % 0 in
20:04 82.6 °F 63.7 °F 29.9 in SE 8.1 mph 8.1 mph 53 % 0 in
20:09 82.2 °F 64.4 °F 29.9 in East 5.9 mph 5.9 mph 55 % 0 in
20:10 73 °F 63.1 °F 30 in Calm     71 % 0 in
20:14 81.7 °F 64.6 °F 29.9 in ESE 6.9 mph 6.9 mph 56 % 0 in
20:19 81 °F 64.2 °F 29.9 in ENE 9.2 mph 9.2 mph 57 % 0 in
20:20 72.9 °F 63.3 °F 30 in Calm     72 % 0 in
20:24 80.6 °F 64.6 °F 29.9 in ENE 8.1 mph 8.1 mph 58 % 0 in
20:29 80.1 °F 64.9 °F 29.9 in ENE 6.9 mph 6.9 mph 60 % 0 in
20:30 72.7 °F 63.1 °F 30 in Calm     72 % 0 in
20:34 79.9 °F 64.8 °F 29.9 in ESE 6 mph 6 mph 60 % 0 in
20:39 79.7 °F 65.1 °F 29.9 in ENE 5.8 mph 5.8 mph 61 % 0 in
20:40 72.1 °F 62.6 °F 30 in Calm     72 % 0 in
20:44 79.3 °F 64.8 °F 29.9 in ENE 5.8 mph 5.8 mph 61 % 0 in
20:49 79 °F 64.8 °F 29.9 in ENE 5.4 mph 5.4 mph 62 % 0 in
20:50 72.1 °F 63 °F 30 in Calm     73 % 0 in
20:54 79 °F 64.4 °F 29.9 in ENE 4.6 mph 4.6 mph 61 % 0 in
20:59 78.6 °F 64 °F 29.9 in NE 4.6 mph 4.6 mph 61 % 0 in
21:00 72 °F 62.4 °F 30 in WNW 1 mph 1 mph 72 % 0 in
21:04 78.4 °F 63.9 °F 29.9 in East 4.6 mph 4.6 mph 61 % 0 in
21:09 78.3 °F 64.2 °F 29.9 in ENE 4.6 mph 4.6 mph 62 % 0 in
21:10 72 °F 62.8 °F 30 in Calm     73 % 0 in
21:14 78.1 °F 64 °F 29.9 in NE 5.8 mph 5.8 mph 62 % 0 in
21:19 77.9 °F 63.9 °F 29.9 in NNE 4.6 mph 4.6 mph 62 % 0 in
21:20 71.8 °F 63 °F 30 in Calm     74 % 0 in
21:24 77.7 °F 63.7 °F 29.9 in ENE 4.6 mph 4.6 mph 62 % 0 in
21:25 77.5 °F 63.5 °F 29.9 in ENE 3.5 mph 3.5 mph 62 % 0 in
21:30 77.4 °F 63.3 °F 29.9 in East 4.6 mph 4.6 mph 62 % 0 in
21:35 77.4 °F 63.3 °F 29.9 in East 3.5 mph 3.5 mph 62 % 0 in
21:40 77.2 °F 63.1 °F 29.9 in ENE 4 mph 4 mph 62 % 0 in
21:45 77 °F 63 °F 29.9 in ENE 4.6 mph 4.6 mph 62 % 0 in
21:50 76.8 °F 63.7 °F 29.9 in ENE 5.9 mph 5.9 mph 64 % 0 in
21:51 76.8 °F 63.7 °F 29.9 in ENE 5.9 mph 5.9 mph 64 % 0 in
21:56 76.6 °F 64 °F 29.9 in NNE 4.6 mph 4.6 mph 65 % 0 in
22:00 70.7 °F 62.4 °F 30 in Calm   1 mph 75 % 0 in
22:01 76.5 °F 63.9 °F 29.9 in ENE 4.6 mph 4.6 mph 65 % 0 in
22:06 76.3 °F 63.7 °F 29.9 in ENE 2.3 mph 2.3 mph 65 % 0 in
22:10 70.5 °F 62.6 °F 30 in North 1 mph 2 mph 76 % 0 in
22:11 76.1 °F 63.9 °F 29.9 in East 4 mph 4 mph 66 % 0 in
22:16 76.1 °F 63.9 °F 30 in SSE 3.5 mph 3.5 mph 66 % 0 in
22:20 70.5 °F 62.6 °F 30 in NE 1 mph 1 mph 76 % 0 in
22:21 75.9 °F 63.7 °F 30 in NE 2.6 mph 2.6 mph 66 % 0 in
22:26 75.7 °F 63.7 °F 30 in East 3.5 mph 3.5 mph 66 % 0 in
22:30 70.5 °F 62.6 °F 30 in Calm   2 mph 76 % 0 in
22:31 75.7 °F 63.7 °F 30 in NE 3.5 mph 3.5 mph 66 % 0 in
22:36 75.6 °F 63.3 °F 30 in ENE 4.6 mph 4.6 mph 66 % 0 in
22:40 70.3 °F 62.4 °F 30 in Calm     76 % 0 in
22:41 75.6 °F 63.3 °F 30 in NE 3.5 mph 3.5 mph 66 % 0 in
22:46 75.6 °F 63.3 °F 30 in East 2.4 mph 2.4 mph 66 % 0 in
22:50 70.3 °F 62.8 °F 30 in Calm     77 % 0 in
22:51 75.4 °F 63.7 °F 30 in ENE 2.3 mph 2.3 mph 67 % 0 in
22:56 75.4 °F 63.7 °F 30 in NNE 2.3 mph 2.3 mph 67 % 0 in
23:00 69.4 °F 61.9 °F 30 in NNE 1 mph 2 mph 77 % 0 in
23:01 75.4 °F 63.7 °F 30 in ENE 2.4 mph 2.4 mph 67 % 0 in
23:06 75.2 °F 63.5 °F 30 in ENE 2.3 mph 2.3 mph 67 % 0 in
23:10 69.4 °F 62.2 °F 30 in West 1 mph 1 mph 78 % 0 in
23:11 75.2 °F 63.5 °F 30 in ENE 1.4 mph 1.4 mph 67 % 0 in
23:16 75 °F 63.7 °F 30 in ENE 2.3 mph 2.3 mph 68 % 0 in
23:20 69.3 °F 62.1 °F 30 in NE 1 mph 2 mph 78 % 0 in
23:21 75 °F 63.7 °F 30 in ENE 2.3 mph 2.3 mph 68 % 0 in
23:26 75 °F 63.7 °F 30 in NE 2.3 mph 2.3 mph 68 % 0 in
23:30 69.3 °F 62.1 °F 30 in Calm   2 mph 78 % 0 in
23:31 74.8 °F 64 °F 30 in NE 2.3 mph 2.3 mph 69 % 0 in
23:36 74.8 °F 64 °F 30 in NE 2.3 mph   69 % 0 in
23:40 69.1 °F 61.9 °F 30 in NE 2 mph 3 mph 78 % 0 in
23:41 74.7 °F 63.9 °F 30 in NNE 1.2 mph   69 % 0 in
23:46 74.5 °F 63.7 °F 30 in NNE 2.4 mph 2.4 mph 69 % 0 in
23:50 68.5 °F 61.3 °F 30 in NE 1 mph 2 mph 78 % 0 in
23:51 74.3 °F 63.5 °F 30 in NNE 2.4 mph 2.4 mph 69 % 0 in
23:56 74.3 °F 63.5 °F 30 in NNE 1.2 mph   69 % 0 in
Meteo Sesrovires
Elogis d' Weather Underground - 3.5 mb

Guio original per  Jim McMurry - jmcmurry@mwt.net Adaptat per a la plantilla per  Wim van der Kuil - Leuven-Template.eu

Trobareu la nostra informacio del temps tambe a:

Weather Underground

AWEKAS